createdAt,value
2023-05-14T00:01:52.112Z,8.24
2023-05-14T00:04:19.771Z,8.18
2023-05-14T00:06:46.646Z,8.17
2023-05-14T00:09:13.462Z,8.20
2023-05-14T00:11:40.218Z,8.18
2023-05-14T00:14:06.929Z,8.15
2023-05-14T00:16:33.695Z,8.15
2023-05-14T00:19:00.433Z,8.20
2023-05-14T00:21:27.128Z,8.24
2023-05-14T00:23:53.804Z,8.27
2023-05-14T00:26:21.529Z,8.31
2023-05-14T00:28:49.164Z,8.26
2023-05-14T00:31:16.080Z,8.23
2023-05-14T00:33:42.853Z,8.27
2023-05-14T00:36:09.724Z,8.27
2023-05-14T00:38:36.676Z,8.24
2023-05-14T00:41:03.682Z,8.21
2023-05-14T00:43:31.967Z,8.22
2023-05-14T00:45:59.301Z,8.22
2023-05-14T00:48:26.469Z,8.23
2023-05-14T00:50:53.261Z,8.16
2023-05-14T00:53:20.894Z,8.20
2023-05-14T00:55:49.504Z,8.20
2023-05-14T00:58:18.848Z,8.15
2023-05-14T01:00:45.957Z,8.19
2023-05-14T01:03:13.032Z,8.18
2023-05-14T01:05:53.736Z,8.22
2023-05-14T01:08:20.542Z,8.19
2023-05-14T01:11:03.835Z,8.05
2023-05-14T01:13:47.337Z,8.17
2023-05-14T01:16:18.316Z,8.16
2023-05-14T01:18:46.808Z,8.13
2023-05-14T01:21:40.405Z,8.15
2023-05-14T01:24:09.390Z,8.03
2023-05-14T01:26:37.071Z,8.08
2023-05-14T01:29:19.004Z,8.11
2023-05-14T01:31:48.994Z,8.11
2023-05-14T01:34:19.381Z,8.09
2023-05-14T01:36:48.593Z,8.13
2023-05-14T01:39:15.733Z,8.16
2023-05-14T01:41:43.398Z,8.17
2023-05-14T01:44:11.176Z,8.10
2023-05-14T01:46:38.230Z,8.17
2023-05-14T01:49:05.184Z,8.20
2023-05-14T01:51:32.234Z,8.22
2023-05-14T01:53:59.036Z,8.24
2023-05-14T01:56:25.911Z,8.23
2023-05-14T01:58:52.949Z,8.27
2023-05-14T02:01:19.699Z,8.29
2023-05-14T02:03:47.624Z,8.31
2023-05-14T02:06:14.492Z,8.29
2023-05-14T02:08:41.178Z,8.34
2023-05-14T02:11:07.957Z,8.36
2023-05-14T02:13:36.330Z,8.34
2023-05-14T02:16:03.308Z,8.37
2023-05-14T02:18:30.066Z,8.35
2023-05-14T02:20:57.552Z,8.39
2023-05-14T02:23:34.197Z,8.34
2023-05-14T02:26:09.865Z,8.35
2023-05-14T02:28:36.632Z,8.37
2023-05-14T02:31:03.760Z,8.46
2023-05-14T02:33:30.600Z,8.52
2023-05-14T02:35:57.478Z,8.45
2023-05-14T02:38:24.282Z,8.47
2023-05-14T02:40:51.034Z,8.43
2023-05-14T02:43:17.821Z,8.52
2023-05-14T02:45:44.668Z,8.46
2023-05-14T02:48:11.825Z,8.52
2023-05-14T02:50:38.630Z,8.52
2023-05-14T02:53:05.490Z,8.49
2023-05-14T02:55:32.195Z,8.58
2023-05-14T02:57:59.078Z,8.59
2023-05-14T03:00:26.140Z,8.59
2023-05-14T03:02:53.550Z,8.57
2023-05-14T03:05:21.092Z,8.50
2023-05-14T03:07:47.799Z,8.52
2023-05-14T03:10:14.690Z,8.59
2023-05-14T03:12:41.715Z,8.53
2023-05-14T03:15:09.233Z,8.53
2023-05-14T03:17:36.098Z,8.61
2023-05-14T03:20:03.567Z,8.55
2023-05-14T03:22:30.419Z,8.44
2023-05-14T03:24:57.313Z,8.52
2023-05-14T03:27:24.093Z,8.47
2023-05-14T03:29:50.785Z,8.46
2023-05-14T03:32:18.303Z,8.44
2023-05-14T03:34:45.194Z,8.39
2023-05-14T03:37:11.918Z,8.41
2023-05-14T03:39:38.705Z,8.37
2023-05-14T03:42:05.631Z,8.41
2023-05-14T03:44:32.349Z,8.38
2023-05-14T03:46:59.146Z,8.35
2023-05-14T03:49:26.280Z,8.32
2023-05-14T03:51:53.094Z,8.30
2023-05-14T03:54:19.875Z,8.29
2023-05-14T03:56:46.671Z,8.25
2023-05-14T03:59:13.385Z,8.28
2023-05-14T04:01:40.238Z,8.28
2023-05-14T04:04:07.023Z,8.30
2023-05-14T04:06:34.591Z,8.30
2023-05-14T04:09:02.615Z,8.26
2023-05-14T04:11:29.694Z,8.27
2023-05-14T04:13:56.681Z,8.23
2023-05-14T04:16:23.581Z,8.23
2023-05-14T04:18:50.443Z,8.18
2023-05-14T04:21:17.232Z,8.14
2023-05-14T04:23:43.957Z,8.05
2023-05-14T04:26:10.819Z,8.03
2023-05-14T04:28:37.475Z,8.06
2023-05-14T04:31:04.637Z,8.09
2023-05-14T04:33:31.362Z,8.10
2023-05-14T04:35:58.040Z,7.96
2023-05-14T04:38:24.784Z,7.96
2023-05-14T04:40:51.522Z,8.00
2023-05-14T04:43:18.249Z,8.01
2023-05-14T04:45:45.045Z,7.96
2023-05-14T04:48:12.298Z,7.96
2023-05-14T04:50:39.061Z,7.96
2023-05-14T04:53:05.718Z,7.90
2023-05-14T04:55:32.477Z,7.94
2023-05-14T04:57:59.165Z,7.96
2023-05-14T05:00:26.033Z,7.95
2023-05-14T05:02:53.112Z,7.94
2023-05-14T05:05:20.121Z,7.93
2023-05-14T05:07:46.976Z,7.93
2023-05-14T05:10:13.745Z,7.97
2023-05-14T05:12:41.421Z,8.05
2023-05-14T05:15:09.660Z,8.19
2023-05-14T05:17:37.002Z,8.19
2023-05-14T05:20:05.667Z,8.23
2023-05-14T05:22:32.516Z,8.59
2023-05-14T05:24:59.990Z,8.71
2023-05-14T05:27:27.058Z,8.98
2023-05-14T05:29:53.741Z,9.47
2023-05-14T05:32:20.517Z,10.02
2023-05-14T05:34:47.318Z,10.11
2023-05-14T05:37:15.003Z,10.39
2023-05-14T05:39:41.779Z,11.11
2023-05-14T05:42:08.817Z,12.58
2023-05-14T05:44:35.575Z,13.40
2023-05-14T05:47:02.456Z,13.93
2023-05-14T05:49:29.309Z,14.53
2023-05-14T05:51:56.090Z,15.23
2023-05-14T05:54:24.933Z,15.22
2023-05-14T05:56:52.066Z,15.63
2023-05-14T05:59:18.921Z,15.86
2023-05-14T06:01:45.660Z,16.27
2023-05-14T06:04:12.389Z,16.04
2023-05-14T06:06:39.044Z,15.88
2023-05-14T06:09:07.111Z,15.79
2023-05-14T06:11:33.800Z,14.84
2023-05-14T06:14:00.727Z,14.18
2023-05-14T06:16:28.009Z,13.96
2023-05-14T06:18:55.915Z,14.18
2023-05-14T06:21:22.690Z,14.04
2023-05-14T06:23:49.476Z,13.87
2023-05-14T06:26:16.167Z,14.00
2023-05-14T06:28:42.901Z,14.19
2023-05-14T06:31:09.656Z,14.60
2023-05-14T06:33:36.617Z,14.59
2023-05-14T06:36:07.842Z,15.43
2023-05-14T06:38:34.445Z,16.07
2023-05-14T06:41:01.165Z,16.09
2023-05-14T06:43:28.338Z,16.31
2023-05-14T06:45:55.089Z,16.51
2023-05-14T06:48:21.973Z,16.16
2023-05-14T06:50:49.848Z,16.50
2023-05-14T06:53:16.932Z,16.52
2023-05-14T06:55:43.741Z,16.97
2023-05-14T06:58:10.450Z,17.53
2023-05-14T07:00:37.198Z,17.44
2023-05-14T07:03:03.975Z,17.98
2023-05-14T07:05:30.944Z,17.96
2023-05-14T07:07:57.701Z,18.43
2023-05-14T07:10:25.107Z,17.79
2023-05-14T07:12:52.083Z,18.45
2023-05-14T07:15:18.918Z,19.29
2023-05-14T07:17:45.659Z,19.23
2023-05-14T07:20:13.070Z,19.40
2023-05-14T07:22:39.816Z,18.77
2023-05-14T07:25:07.332Z,17.31
2023-05-14T07:27:34.072Z,17.06
2023-05-14T07:30:04.748Z,17.83
2023-05-14T07:32:34.270Z,18.06
2023-05-14T07:35:06.351Z,16.98
2023-05-14T07:37:33.201Z,17.16
2023-05-14T07:40:00.047Z,16.65
2023-05-14T07:42:36.709Z,16.35
2023-05-14T07:45:04.987Z,16.24
2023-05-14T07:47:34.941Z,16.19
2023-05-14T07:50:05.879Z,16.18
2023-05-14T07:52:32.640Z,16.10
2023-05-14T07:55:00.015Z,17.43
2023-05-14T07:57:29.469Z,18.24
2023-05-14T07:59:57.082Z,19.49
2023-05-14T08:02:25.104Z,18.52
2023-05-14T08:04:52.108Z,18.33
2023-05-14T08:07:18.931Z,18.26
2023-05-14T08:09:46.787Z,18.34
2023-05-14T08:12:14.021Z,18.25
2023-05-14T08:14:44.399Z,18.33
2023-05-14T08:17:14.295Z,18.46
2023-05-14T08:19:41.103Z,17.84
2023-05-14T08:22:08.149Z,18.48
2023-05-14T08:24:35.224Z,18.41
2023-05-14T08:27:02.420Z,19.07
2023-05-14T08:29:29.121Z,18.59
2023-05-14T08:31:55.903Z,17.99
2023-05-14T08:34:26.681Z,17.74
2023-05-14T08:36:53.619Z,17.95
2023-05-14T08:39:20.298Z,17.76
2023-05-14T08:41:48.041Z,17.87
2023-05-14T08:44:19.038Z,18.17
2023-05-14T08:46:46.083Z,18.06
2023-05-14T08:49:33.433Z,17.59
2023-05-14T08:52:00.678Z,17.80
2023-05-14T08:54:28.818Z,17.55
2023-05-14T08:56:55.771Z,17.44
2023-05-14T08:59:22.868Z,17.59
2023-05-14T09:01:53.750Z,17.83
2023-05-14T09:04:23.405Z,17.49
2023-05-14T09:06:54.487Z,17.23
2023-05-14T09:09:22.629Z,17.23
2023-05-14T09:11:53.957Z,17.01
2023-05-14T09:14:22.720Z,16.99
2023-05-14T09:16:51.490Z,17.38
2023-05-14T09:19:19.541Z,17.38
2023-05-14T09:21:49.598Z,16.83
2023-05-14T09:24:24.534Z,17.12
2023-05-14T09:26:56.341Z,17.19
2023-05-14T09:29:30.180Z,17.05
2023-05-14T09:31:58.334Z,17.09
2023-05-14T09:34:30.927Z,17.18
2023-05-14T09:36:59.504Z,16.93
2023-05-14T09:39:26.930Z,16.84
2023-05-14T09:41:54.294Z,16.72
2023-05-14T09:44:21.656Z,16.67
2023-05-14T09:46:49.105Z,17.11
2023-05-14T09:49:16.161Z,17.22
2023-05-14T09:51:43.261Z,17.03
2023-05-14T09:54:10.289Z,16.96
2023-05-14T09:56:37.733Z,16.93
2023-05-14T09:59:04.480Z,17.11
2023-05-14T10:01:33.044Z,17.08
2023-05-14T10:04:00.364Z,17.32
2023-05-14T10:06:30.514Z,17.06
2023-05-14T10:09:01.511Z,17.62
2023-05-14T10:11:32.739Z,17.32
2023-05-14T10:14:12.467Z,17.42
2023-05-14T10:16:43.635Z,17.06
2023-05-14T10:19:11.396Z,17.52
2023-05-14T10:21:40.952Z,17.49
2023-05-14T10:24:08.642Z,17.11
2023-05-14T10:26:39.504Z,16.71
2023-05-14T10:29:07.026Z,16.81
2023-05-14T10:31:54.194Z,17.07
2023-05-14T10:34:44.298Z,17.40
2023-05-14T10:37:14.639Z,17.61
2023-05-14T10:39:51.592Z,17.73
2023-05-14T10:42:19.969Z,17.71
2023-05-14T10:44:59.737Z,17.51
2023-05-14T10:47:27.138Z,17.27
2023-05-14T10:49:59.607Z,17.37
2023-05-14T10:52:26.753Z,17.59
2023-05-14T10:55:03.074Z,17.24
2023-05-14T10:57:32.015Z,17.18
2023-05-14T11:00:01.331Z,17.10
2023-05-14T11:02:30.689Z,16.80
2023-05-14T11:05:06.069Z,17.27
2023-05-14T11:07:38.490Z,17.26
2023-05-14T11:10:06.654Z,16.72
2023-05-14T11:12:35.405Z,16.49
2023-05-14T11:15:07.262Z,16.04
2023-05-14T11:17:35.657Z,16.17
2023-05-14T11:20:02.831Z,16.06
2023-05-14T11:22:30.235Z,15.98
2023-05-14T11:24:57.537Z,16.25
2023-05-14T11:27:27.471Z,16.75
2023-05-14T11:29:55.991Z,16.65
2023-05-14T11:32:22.914Z,16.62
2023-05-14T11:34:49.841Z,16.63
2023-05-14T11:37:16.925Z,16.88
2023-05-14T11:39:55.277Z,16.53
2023-05-14T11:42:23.723Z,16.57
2023-05-14T11:44:52.286Z,16.62
2023-05-14T11:47:21.357Z,16.46
2023-05-14T11:49:49.208Z,16.45
2023-05-14T11:52:19.499Z,15.86
2023-05-14T11:54:47.105Z,16.00
2023-05-14T11:57:17.134Z,15.85
2023-05-14T11:59:43.979Z,15.57
2023-05-14T12:02:14.166Z,15.62
2023-05-14T12:04:42.895Z,15.29
2023-05-14T12:07:11.985Z,14.90
2023-05-14T12:09:42.604Z,14.73
2023-05-14T12:12:12.447Z,14.49
2023-05-14T12:14:45.357Z,15.03
2023-05-14T12:17:22.593Z,15.15
2023-05-14T12:20:00.329Z,15.04
2023-05-14T12:22:29.860Z,14.84
2023-05-14T12:24:58.837Z,14.84
2023-05-14T12:27:27.558Z,14.55
2023-05-14T12:32:37.879Z,14.67
2023-05-14T12:35:05.043Z,14.41
2023-05-14T12:37:32.138Z,14.73
2023-05-14T12:39:58.849Z,14.72
2023-05-14T12:42:25.620Z,14.20
2023-05-14T12:44:52.409Z,14.59
2023-05-14T12:47:19.422Z,14.56
2023-05-14T12:49:46.269Z,14.73
2023-05-14T12:54:43.514Z,14.66
2023-05-14T12:57:10.421Z,14.78
2023-05-14T12:59:37.170Z,14.83
2023-05-14T13:02:04.017Z,14.77
2023-05-14T13:04:30.768Z,15.02
2023-05-14T13:06:57.579Z,15.05
2023-05-14T13:09:24.238Z,15.00
2023-05-14T13:11:51.156Z,14.85
2023-05-14T13:14:20.171Z,14.72
2023-05-14T13:16:47.161Z,14.88
2023-05-14T13:19:14.004Z,14.84
2023-05-14T13:21:41.021Z,14.78
2023-05-14T13:24:10.151Z,14.73
2023-05-14T13:26:37.697Z,14.78
2023-05-14T13:29:04.377Z,14.29
2023-05-14T13:31:31.174Z,14.29
2023-05-14T13:33:59.446Z,14.49
2023-05-14T13:36:26.484Z,14.35
2023-05-14T13:38:53.276Z,13.92
2023-05-14T13:41:20.019Z,13.98
2023-05-14T13:43:46.668Z,14.25
2023-05-14T13:46:13.582Z,14.17
2023-05-14T13:48:40.365Z,14.02
2023-05-14T13:51:07.137Z,14.18
2023-05-14T13:53:33.887Z,13.80
2023-05-14T13:56:01.789Z,14.09
2023-05-14T13:58:28.793Z,13.94
2023-05-14T14:00:56.664Z,14.11
2023-05-14T14:03:23.585Z,14.31
2023-05-14T14:05:51.661Z,14.52
2023-05-14T14:08:23.925Z,14.53
2023-05-14T14:10:54.500Z,14.66
2023-05-14T14:13:22.989Z,14.99
2023-05-14T14:15:50.259Z,15.11
2023-05-14T14:18:17.992Z,14.74
2023-05-14T14:20:44.674Z,15.24
2023-05-14T14:23:11.400Z,14.07
2023-05-14T14:25:38.265Z,13.32
2023-05-14T14:28:05.087Z,12.99
2023-05-14T14:30:33.270Z,12.86
2023-05-14T14:33:01.363Z,12.61
2023-05-14T14:35:28.491Z,12.76
2023-05-14T14:37:55.816Z,13.00
2023-05-14T14:40:24.015Z,12.61
2023-05-14T14:42:50.830Z,12.44
2023-05-14T14:45:17.669Z,12.30
2023-05-14T14:47:46.358Z,12.90
2023-05-14T14:50:13.809Z,12.94
2023-05-14T14:52:45.629Z,12.62
2023-05-14T14:55:12.967Z,12.60
2023-05-14T14:57:39.828Z,12.36
2023-05-14T15:00:07.370Z,12.32
2023-05-14T15:02:34.750Z,12.66
2023-05-14T15:05:01.759Z,12.83
2023-05-14T15:07:32.806Z,12.51
2023-05-14T15:09:59.584Z,12.02
2023-05-14T15:12:26.312Z,12.13
2023-05-14T15:14:53.072Z,12.04
2023-05-14T15:17:19.761Z,11.98
2023-05-14T15:19:46.739Z,12.16
2023-05-14T15:22:13.556Z,12.36
2023-05-14T15:24:40.343Z,12.38
2023-05-14T15:27:07.039Z,12.63
2023-05-14T15:29:35.015Z,12.33
2023-05-14T15:32:02.274Z,12.34
2023-05-14T15:34:29.286Z,12.56
2023-05-14T15:36:55.962Z,12.32
2023-05-14T15:39:22.749Z,12.13
2023-05-14T15:41:49.466Z,12.40
2023-05-14T15:44:16.336Z,12.40
2023-05-14T15:46:43.037Z,12.43
2023-05-14T15:49:09.946Z,12.41
2023-05-14T15:51:36.628Z,12.62
2023-05-14T15:54:04.966Z,12.57
2023-05-14T15:56:31.728Z,12.32
2023-05-14T15:58:58.470Z,12.29
2023-05-14T16:01:25.185Z,12.26
2023-05-14T16:03:52.904Z,12.08
2023-05-14T16:06:19.751Z,12.17
2023-05-14T16:08:46.523Z,12.36
2023-05-14T16:11:13.231Z,12.51
2023-05-14T16:13:41.601Z,12.22
2023-05-14T16:16:08.577Z,12.46
2023-05-14T16:18:36.386Z,12.35
2023-05-14T16:21:03.720Z,12.25
2023-05-14T16:23:30.614Z,12.26
2023-05-14T16:25:57.884Z,12.27
2023-05-14T16:28:24.789Z,12.14
2023-05-14T16:30:51.564Z,12.20
2023-05-14T16:33:18.262Z,12.10
2023-05-14T16:35:45.545Z,12.19
2023-05-14T16:38:12.280Z,12.54
2023-05-14T16:40:39.017Z,12.38
2023-05-14T16:43:06.017Z,12.66
2023-05-14T16:45:34.819Z,12.84
2023-05-14T16:48:01.582Z,12.86
2023-05-14T16:50:28.494Z,12.55
2023-05-14T16:52:55.208Z,12.71
2023-05-14T16:55:22.086Z,13.02
2023-05-14T16:57:48.941Z,13.06
2023-05-14T17:00:16.119Z,12.92
2023-05-14T17:02:42.798Z,12.59
2023-05-14T17:05:09.805Z,12.50
2023-05-14T17:07:38.452Z,12.27
2023-05-14T17:10:06.439Z,12.10
2023-05-14T17:12:33.232Z,12.05
2023-05-14T17:15:01.975Z,11.91
2023-05-14T17:17:32.200Z,11.70
2023-05-14T17:19:58.960Z,11.61
2023-05-14T17:22:25.891Z,11.58
2023-05-14T17:24:52.969Z,11.48
2023-05-14T17:27:19.600Z,11.51
2023-05-14T17:29:46.269Z,11.62
2023-05-14T17:32:13.033Z,11.55
2023-05-14T17:34:39.811Z,11.59
2023-05-14T17:37:06.935Z,11.52
2023-05-14T17:39:33.751Z,11.39
2023-05-14T17:42:00.542Z,11.31
2023-05-14T17:44:27.206Z,11.07
2023-05-14T17:46:53.929Z,11.13
2023-05-14T17:49:20.702Z,11.07
2023-05-14T17:51:47.472Z,10.96
2023-05-14T17:54:14.210Z,10.67
2023-05-14T17:56:41.092Z,10.55
2023-05-14T17:59:07.856Z,10.42
2023-05-14T18:01:34.551Z,10.35
2023-05-14T18:04:01.434Z,10.36
2023-05-14T18:06:28.285Z,10.30
2023-05-14T18:08:54.975Z,10.27
2023-05-14T18:11:21.681Z,10.32
2023-05-14T18:13:48.388Z,10.34
2023-05-14T18:16:15.244Z,10.17
2023-05-14T18:18:42.104Z,10.19
2023-05-14T18:21:08.971Z,10.17
2023-05-14T18:23:35.822Z,10.20
2023-05-14T18:26:02.629Z,10.03
2023-05-14T18:28:29.370Z,10.12
2023-05-14T18:30:56.131Z,10.09
2023-05-14T18:33:22.822Z,10.14
2023-05-14T18:35:49.485Z,10.12
2023-05-14T18:38:17.915Z,10.17
2023-05-14T18:40:44.652Z,10.29
2023-05-14T18:43:13.400Z,10.18
2023-05-14T18:45:40.474Z,10.21
2023-05-14T18:48:07.267Z,10.18
2023-05-14T18:50:33.977Z,10.19
2023-05-14T18:53:00.637Z,10.33
2023-05-14T18:55:27.540Z,10.34
2023-05-14T18:57:54.284Z,10.41
2023-05-14T19:00:20.952Z,10.28
2023-05-14T19:02:47.948Z,10.26
2023-05-14T19:05:14.712Z,10.30
2023-05-14T19:07:43.041Z,10.54
2023-05-14T19:10:10.919Z,10.57
2023-05-14T19:12:37.647Z,10.56
2023-05-14T19:15:05.614Z,10.65
2023-05-14T19:17:32.869Z,10.49
2023-05-14T19:19:59.692Z,10.52
2023-05-14T19:22:26.384Z,10.37
2023-05-14T19:24:53.108Z,10.36
2023-05-14T19:27:20.711Z,10.37
2023-05-14T19:29:47.442Z,10.24
2023-05-14T19:32:14.199Z,10.32
2023-05-14T19:34:41.180Z,9.91
2023-05-14T19:37:08.060Z,10.11
2023-05-14T19:39:34.765Z,10.18
2023-05-14T19:42:01.618Z,10.13
2023-05-14T19:44:28.336Z,10.01
2023-05-14T19:46:55.141Z,10.07
2023-05-14T19:49:21.858Z,10.05
2023-05-14T19:51:49.795Z,10.00
2023-05-14T19:54:16.569Z,10.02
2023-05-14T19:56:43.292Z,10.11
2023-05-14T19:59:09.935Z,9.84
2023-05-14T20:01:36.798Z,9.93
2023-05-14T20:04:03.870Z,9.80
2023-05-14T20:06:32.125Z,9.99
2023-05-14T20:08:59.142Z,9.76
2023-05-14T20:11:25.985Z,9.89
2023-05-14T20:13:52.797Z,9.74
2023-05-14T20:16:19.606Z,9.69
2023-05-14T20:18:46.434Z,9.65
2023-05-14T20:21:13.235Z,9.79
2023-05-14T20:23:40.867Z,9.57
2023-05-14T20:26:07.739Z,9.79
2023-05-14T20:28:34.479Z,9.76
2023-05-14T20:31:04.129Z,9.72
2023-05-14T20:33:30.930Z,9.63
2023-05-14T20:35:57.717Z,9.80
2023-05-14T20:38:25.752Z,9.73
2023-05-14T20:40:52.503Z,9.74
2023-05-14T20:43:19.237Z,9.71
2023-05-14T20:45:46.172Z,9.72
2023-05-14T20:48:16.288Z,9.72
2023-05-14T20:50:43.604Z,9.63
2023-05-14T20:53:10.361Z,9.58
2023-05-14T20:55:37.082Z,9.56
2023-05-14T20:58:03.803Z,9.71
2023-05-14T21:00:30.582Z,9.70
2023-05-14T21:02:57.701Z,9.72
2023-05-14T21:05:24.887Z,9.70
2023-05-14T21:07:51.787Z,9.75
2023-05-14T21:10:18.607Z,9.47
2023-05-14T21:12:45.551Z,9.56
2023-05-14T21:15:14.876Z,9.60
2023-05-14T21:17:41.974Z,9.56
2023-05-14T21:20:09.370Z,9.65
2023-05-14T21:22:39.041Z,9.48
2023-05-14T21:25:06.269Z,9.52
2023-05-14T21:27:33.251Z,9.59
2023-05-14T21:30:00.051Z,9.69
2023-05-14T21:32:27.020Z,9.71
2023-05-14T21:34:53.811Z,9.69
2023-05-14T21:37:21.867Z,9.75
2023-05-14T21:39:48.661Z,9.56
2023-05-14T21:42:16.267Z,9.56
2023-05-14T21:44:43.058Z,9.64
2023-05-14T21:47:09.817Z,9.66
2023-05-14T21:49:36.774Z,9.52
2023-05-14T21:52:04.465Z,9.45
2023-05-14T21:54:31.179Z,9.67
2023-05-14T21:56:58.068Z,9.65
2023-05-14T21:59:24.874Z,9.53
2023-05-14T22:02:06.396Z,9.63
2023-05-14T22:04:34.322Z,9.47
2023-05-14T22:07:01.604Z,9.37
2023-05-14T22:09:28.882Z,9.33
2023-05-14T22:11:56.478Z,9.26
2023-05-14T22:14:23.245Z,9.18
2023-05-14T22:16:50.288Z,9.26
2023-05-14T22:19:17.225Z,9.28
2023-05-14T22:21:44.091Z,9.29
2023-05-14T22:24:10.839Z,9.32
2023-05-14T22:26:37.556Z,9.28
2023-05-14T22:29:04.755Z,9.42
2023-05-14T22:31:33.913Z,9.43
2023-05-14T22:34:00.653Z,9.13
2023-05-14T22:36:27.458Z,9.07
2023-05-14T22:38:54.338Z,9.18
2023-05-14T22:41:22.190Z,9.20
2023-05-14T22:43:49.438Z,9.13
2023-05-14T22:46:16.373Z,9.17
2023-05-14T22:48:43.115Z,9.23
2023-05-14T22:51:09.927Z,9.24
2023-05-14T22:53:36.765Z,9.22
2023-05-14T22:56:04.607Z,9.00
2023-05-14T22:58:31.416Z,9.00
2023-05-14T23:00:58.190Z,8.97
2023-05-14T23:03:24.869Z,8.91
2023-05-14T23:05:52.196Z,9.05
2023-05-14T23:08:18.890Z,9.04
2023-05-14T23:10:45.696Z,8.97
2023-05-14T23:13:12.674Z,8.95
2023-05-14T23:15:39.475Z,8.86
2023-05-14T23:18:07.685Z,8.90
2023-05-14T23:20:34.530Z,8.86
2023-05-14T23:23:01.194Z,9.05
2023-05-14T23:25:27.982Z,9.04
2023-05-14T23:27:54.700Z,9.09
2023-05-14T23:30:21.453Z,9.14
2023-05-14T23:32:48.207Z,9.09
2023-05-14T23:35:14.952Z,8.90
2023-05-14T23:37:47.070Z,8.92
2023-05-14T23:40:19.722Z,8.78
2023-05-14T23:42:46.661Z,9.01
2023-05-14T23:45:13.678Z,8.87
2023-05-14T23:47:41.134Z,8.78
2023-05-14T23:50:08.121Z,8.78
2023-05-14T23:52:34.969Z,8.75
2023-05-14T23:55:01.929Z,8.59
2023-05-14T23:57:29.061Z,8.58
2023-05-14T23:59:55.921Z,8.61
